KSAT/SAT METAR and TAF weather

Enter ICAO airport designator
Station Type Date Time Source
KSAT METAR 2022/06/26 07:51 UTC NOAA

KSAT 260751Z 17008KT 10SM BKN019 26/22 A3007 RMK AO2 SLP161 T02610222


Station Type Date Time Source
KSAT Decoded METAR 2022/06/26 07:51 UTC NOAA

SAN ANTONIO INTERNATIONAL AIRPORT , TX, United States (KSAT) 29-32N 098-28W 243M
Jun 26, 2022 - 03:51 AM EDT / 2022.06.26 0751 UTC
Wind: from the S (170 degrees) at 9 MPH (8 KT):0
Visibility: 10 mile(s):0
Sky conditions: mostly cloudy
Temperature: 79.0 F (26.1 C)
Dew Point: 72.0 F (22.2 C)
Relative Humidity: 79%
Pressure (altimeter): 30.07 in. Hg (1018 hPa)
ob: KSAT 260751Z 17008KT 10SM BKN019 26/22 A3007 RMK AO2 SLP161 T02610222
cycle: 8

Station Type Date Time Source
KSAT TAF 2022/06/26 06:22 UTC NOAA

TAF KSAT 260520Z 2606/2712 15012G19KT P6SM SKC
TEMPO 2610/2613 BKN019
FM261400 13010KT P6SM FEW060
FM270200 13010G20KT P6SM FEW060
FM270500 15009KT P6SM FEW060

Example: see airport list